sensor_id;sensor_type;location;lat;lon;timestamp;P1;durP1;ratioP1;P2;durP2;ratioP2
9559;SDS011;4818;50.860;4.648;2023-03-01T00:05:34;13.98;;;7.55;;
9559;SDS011;4818;50.860;4.648;2023-03-01T00:14:13;13.60;;;7.72;;
9559;SDS011;4818;50.860;4.648;2023-03-01T00:17:15;14.82;;;7.22;;
9559;SDS011;4818;50.860;4.648;2023-03-01T00:19:50;11.98;;;6.75;;
9559;SDS011;4818;50.860;4.648;2023-03-01T00:22:46;15.50;;;6.78;;
9559;SDS011;4818;50.860;4.648;2023-03-01T00:28:22;15.35;;;6.70;;
9559;SDS011;4818;50.860;4.648;2023-03-01T00:31:33;15.55;;;8.60;;
9559;SDS011;4818;50.860;4.648;2023-03-01T00:34:03;14.75;;;7.43;;
9559;SDS011;4818;50.860;4.648;2023-03-01T00:39:44;15.77;;;7.03;;
9559;SDS011;4818;50.860;4.648;2023-03-01T00:42:22;14.15;;;7.28;;
9559;SDS011;4818;50.860;4.648;2023-03-01T00:45:07;13.63;;;7.28;;
9559;SDS011;4818;50.860;4.648;2023-03-01T00:48:08;14.27;;;7.47;;
9559;SDS011;4818;50.860;4.648;2023-03-01T00:54:08;12.27;;;6.82;;
9559;SDS011;4818;50.860;4.648;2023-03-01T00:56:46;14.63;;;6.47;;
9559;SDS011;4818;50.860;4.648;2023-03-01T00:59:28;15.02;;;6.82;;
9559;SDS011;4818;50.860;4.648;2023-03-01T01:02:03;16.58;;;6.97;;
9559;SDS011;4818;50.860;4.648;2023-03-01T01:04:42;12.25;;;6.80;;
9559;SDS011;4818;50.860;4.648;2023-03-01T01:07:17;11.90;;;7.07;;
9559;SDS011;4818;50.860;4.648;2023-03-01T01:10:02;13.13;;;6.78;;
9559;SDS011;4818;50.860;4.648;2023-03-01T01:16:08;13.98;;;8.00;;
9559;SDS011;4818;50.860;4.648;2023-03-01T01:18:53;12.65;;;6.68;;
9559;SDS011;4818;50.860;4.648;2023-03-01T01:21:54;16.35;;;6.60;;
9559;SDS011;4818;50.860;4.648;2023-03-01T01:24:30;12.13;;;6.60;;
9559;SDS011;4818;50.860;4.648;2023-03-01T01:27:06;12.52;;;6.35;;
9559;SDS011;4818;50.860;4.648;2023-03-01T01:29:35;11.77;;;6.60;;
9559;SDS011;4818;50.860;4.648;2023-03-01T01:32:42;10.57;;;6.45;;
9559;SDS011;4818;50.860;4.648;2023-03-01T01:35:36;10.63;;;5.65;;
9559;SDS011;4818;50.860;4.648;2023-03-01T01:38:16;12.20;;;6.57;;
9559;SDS011;4818;50.860;4.648;2023-03-01T01:40:58;10.77;;;5.68;;
9559;SDS011;4818;50.860;4.648;2023-03-01T01:43:38;13.50;;;5.85;;
9559;SDS011;4818;50.860;4.648;2023-03-01T01:48:59;10.05;;;6.53;;
9559;SDS011;4818;50.860;4.648;2023-03-01T01:51:47;11.23;;;6.40;;
9559;SDS011;4818;50.860;4.648;2023-03-01T01:54:48;10.98;;;5.78;;
9559;SDS011;4818;50.860;4.648;2023-03-01T02:02:45;8.68;;;5.70;;
9559;SDS011;4818;50.860;4.648;2023-03-01T02:08:45;13.55;;;6.28;;
9559;SDS011;4818;50.860;4.648;2023-03-01T02:11:31;10.82;;;5.82;;
9559;SDS011;4818;50.860;4.648;2023-03-01T02:14:12;9.23;;;5.20;;
9559;SDS011;4818;50.860;4.648;2023-03-01T02:17:01;11.57;;;5.90;;
9559;SDS011;4818;50.860;4.648;2023-03-01T02:22:37;10.05;;;5.88;;
9559;SDS011;4818;50.860;4.648;2023-03-01T02:27:42;11.70;;;6.40;;
9559;SDS011;4818;50.860;4.648;2023-03-01T02:30:48;10.88;;;6.00;;
9559;SDS011;4818;50.860;4.648;2023-03-01T02:40:04;12.88;;;6.60;;
9559;SDS011;4818;50.860;4.648;2023-03-01T02:42:51;14.05;;;6.72;;
9559;SDS011;4818;50.860;4.648;2023-03-01T02:45:50;12.77;;;6.88;;
9559;SDS011;4818;50.860;4.648;2023-03-01T02:48:26;10.77;;;6.05;;
9559;SDS011;4818;50.860;4.648;2023-03-01T02:57:03;11.88;;;7.38;;
9559;SDS011;4818;50.860;4.648;2023-03-01T02:59:44;13.60;;;7.15;;
9559;SDS011;4818;50.860;4.648;2023-03-01T03:02:24;12.10;;;6.35;;
9559;SDS011;4818;50.860;4.648;2023-03-01T03:05:28;10.85;;;6.85;;
9559;SDS011;4818;50.860;4.648;2023-03-01T03:11:19;10.98;;;5.75;;
9559;SDS011;4818;50.860;4.648;2023-03-01T03:17:42;10.75;;;6.90;;
9559;SDS011;4818;50.860;4.648;2023-03-01T03:20:11;11.75;;;6.15;;
9559;SDS011;4818;50.860;4.648;2023-03-01T03:22:53;8.90;;;5.25;;
9559;SDS011;4818;50.860;4.648;2023-03-01T03:25:48;12.48;;;7.28;;
9559;SDS011;4818;50.860;4.648;2023-03-01T03:28:14;12.73;;;7.32;;
9559;SDS011;4818;50.860;4.648;2023-03-01T03:30:46;12.68;;;6.68;;
9559;SDS011;4818;50.860;4.648;2023-03-01T03:33:54;13.55;;;6.40;;
9559;SDS011;4818;50.860;4.648;2023-03-01T03:36:27;13.30;;;7.18;;
9559;SDS011;4818;50.860;4.648;2023-03-01T03:39:06;11.57;;;6.35;;
9559;SDS011;4818;50.860;4.648;2023-03-01T03:41:38;9.45;;;5.15;;
9559;SDS011;4818;50.860;4.648;2023-03-01T03:44:31;14.23;;;7.00;;
9559;SDS011;4818;50.860;4.648;2023-03-01T03:47:27;10.15;;;6.10;;
9559;SDS011;4818;50.860;4.648;2023-03-01T03:50:02;12.85;;;6.72;;
9559;SDS011;4818;50.860;4.648;2023-03-01T03:52:53;9.13;;;6.47;;
9559;SDS011;4818;50.860;4.648;2023-03-01T03:58:10;12.05;;;6.53;;
9559;SDS011;4818;50.860;4.648;2023-03-01T04:00:46;12.45;;;7.30;;
9559;SDS011;4818;50.860;4.648;2023-03-01T04:06:37;13.10;;;6.53;;
9559;SDS011;4818;50.860;4.648;2023-03-01T04:15:25;12.18;;;6.43;;
9559;SDS011;4818;50.860;4.648;2023-03-01T04:18:22;12.23;;;6.55;;
9559;SDS011;4818;50.860;4.648;2023-03-01T04:20:48;15.13;;;7.45;;
9559;SDS011;4818;50.860;4.648;2023-03-01T04:23:58;13.98;;;6.25;;
9559;SDS011;4818;50.860;4.648;2023-03-01T04:26:33;11.45;;;6.50;;
9559;SDS011;4818;50.860;4.648;2023-03-01T04:29:06;12.43;;;6.10;;
9559;SDS011;4818;50.860;4.648;2023-03-01T04:31:51;13.05;;;6.85;;
9559;SDS011;4818;50.860;4.648;2023-03-01T04:34:38;12.70;;;6.63;;
9559;SDS011;4818;50.860;4.648;2023-03-01T04:37:34;14.03;;;7.33;;
9559;SDS011;4818;50.860;4.648;2023-03-01T04:40:28;14.23;;;6.38;;
9559;SDS011;4818;50.860;4.648;2023-03-01T04:43:24;13.77;;;5.85;;
9559;SDS011;4818;50.860;4.648;2023-03-01T04:45:59;13.65;;;7.72;;
9559;SDS011;4818;50.860;4.648;2023-03-01T04:48:30;11.27;;;5.88;;
9559;SDS011;4818;50.860;4.648;2023-03-01T04:51:06;13.18;;;6.78;;
9559;SDS011;4818;50.860;4.648;2023-03-01T04:53:47;13.77;;;6.07;;
9559;SDS011;4818;50.860;4.648;2023-03-01T04:56:16;13.45;;;6.55;;
9559;SDS011;4818;50.860;4.648;2023-03-01T04:59:12;12.98;;;6.63;;
9559;SDS011;4818;50.860;4.648;2023-03-01T05:02:05;13.25;;;6.57;;
9559;SDS011;4818;50.860;4.648;2023-03-01T05:04:32;11.90;;;6.45;;
9559;SDS011;4818;50.860;4.648;2023-03-01T05:07:10;12.95;;;6.93;;
9559;SDS011;4818;50.860;4.648;2023-03-01T05:13:05;16.42;;;6.72;;
9559;SDS011;4818;50.860;4.648;2023-03-01T05:15:59;11.32;;;6.22;;
9559;SDS011;4818;50.860;4.648;2023-03-01T05:19:05;12.10;;;6.03;;
9559;SDS011;4818;50.860;4.648;2023-03-01T05:22:16;15.45;;;6.93;;
9559;SDS011;4818;50.860;4.648;2023-03-01T05:24:47;11.48;;;6.85;;
9559;SDS011;4818;50.860;4.648;2023-03-01T05:27:28;10.60;;;6.25;;
9559;SDS011;4818;50.860;4.648;2023-03-01T05:29:57;10.80;;;6.75;;
9559;SDS011;4818;50.860;4.648;2023-03-01T05:32:33;13.18;;;6.28;;
9559;SDS011;4818;50.860;4.648;2023-03-01T05:34:59;10.95;;;6.50;;
9559;SDS011;4818;50.860;4.648;2023-03-01T05:37:25;15.77;;;7.43;;
9559;SDS011;4818;50.860;4.648;2023-03-01T05:39:51;12.18;;;6.93;;
9559;SDS011;4818;50.860;4.648;2023-03-01T05:42:17;11.27;;;7.07;;
9559;SDS011;4818;50.860;4.648;2023-03-01T05:44:44;13.25;;;7.25;;
9559;SDS011;4818;50.860;4.648;2023-03-01T05:47:10;14.68;;;7.28;;
9559;SDS011;4818;50.860;4.648;2023-03-01T05:49:36;12.65;;;6.35;;
9559;SDS011;4818;50.860;4.648;2023-03-01T05:52:02;12.98;;;7.63;;
9559;SDS011;4818;50.860;4.648;2023-03-01T05:54:28;12.88;;;7.40;;
9559;SDS011;4818;50.860;4.648;2023-03-01T05:56:55;10.00;;;5.63;;
9559;SDS011;4818;50.860;4.648;2023-03-01T05:59:21;14.82;;;7.10;;
9559;SDS011;4818;50.860;4.648;2023-03-01T06:01:47;14.48;;;6.43;;
9559;SDS011;4818;50.860;4.648;2023-03-01T06:04:13;13.45;;;6.97;;
9559;SDS011;4818;50.860;4.648;2023-03-01T06:06:39;12.02;;;6.72;;
9559;SDS011;4818;50.860;4.648;2023-03-01T06:09:06;12.82;;;7.63;;
9559;SDS011;4818;50.860;4.648;2023-03-01T06:11:35;11.73;;;6.50;;
9559;SDS011;4818;50.860;4.648;2023-03-01T06:14:01;13.10;;;7.65;;
9559;SDS011;4818;50.860;4.648;2023-03-01T06:16:28;14.05;;;7.40;;
9559;SDS011;4818;50.860;4.648;2023-03-01T06:18:54;12.55;;;7.00;;
9559;SDS011;4818;50.860;4.648;2023-03-01T06:21:20;13.48;;;6.68;;
9559;SDS011;4818;50.860;4.648;2023-03-01T06:23:46;11.68;;;6.93;;
9559;SDS011;4818;50.860;4.648;2023-03-01T06:26:13;12.52;;;7.00;;
9559;SDS011;4818;50.860;4.648;2023-03-01T06:28:39;15.35;;;7.32;;
9559;SDS011;4818;50.860;4.648;2023-03-01T06:31:05;21.58;;;11.98;;
9559;SDS011;4818;50.860;4.648;2023-03-01T06:33:34;30.95;;;16.85;;
9559;SDS011;4818;50.860;4.648;2023-03-01T06:36:01;49.65;;;34.55;;
9559;SDS011;4818;50.860;4.648;2023-03-01T06:38:27;69.68;;;52.38;;
9559;SDS011;4818;50.860;4.648;2023-03-01T06:40:54;16.92;;;11.63;;
9559;SDS011;4818;50.860;4.648;2023-03-01T06:43:21;21.38;;;15.98;;
9559;SDS011;4818;50.860;4.648;2023-03-01T06:45:48;16.17;;;9.82;;
9559;SDS011;4818;50.860;4.648;2023-03-01T06:48:14;20.23;;;10.40;;
9559;SDS011;4818;50.860;4.648;2023-03-01T06:50:41;13.70;;;7.82;;
9559;SDS011;4818;50.860;4.648;2023-03-01T06:53:07;13.98;;;7.65;;
9559;SDS011;4818;50.860;4.648;2023-03-01T06:55:33;14.93;;;7.38;;
9559;SDS011;4818;50.860;4.648;2023-03-01T06:58:00;14.80;;;7.25;;
9559;SDS011;4818;50.860;4.648;2023-03-01T07:00:27;16.73;;;7.30;;
9559;SDS011;4818;50.860;4.648;2023-03-01T07:02:53;14.93;;;6.70;;
9559;SDS011;4818;50.860;4.648;2023-03-01T07:05:20;17.75;;;7.43;;
9559;SDS011;4818;50.860;4.648;2023-03-01T07:07:46;14.80;;;6.95;;
9559;SDS011;4818;50.860;4.648;2023-03-01T07:10:12;19.23;;;9.68;;
9559;SDS011;4818;50.860;4.648;2023-03-01T07:12:39;25.65;;;14.85;;
9559;SDS011;4818;50.860;4.648;2023-03-01T07:15:06;24.58;;;14.75;;
9559;SDS011;4818;50.860;4.648;2023-03-01T07:17:34;33.25;;;18.30;;
9559;SDS011;4818;50.860;4.648;2023-03-01T07:20:03;48.72;;;26.60;;
9559;SDS011;4818;50.860;4.648;2023-03-01T07:22:29;31.48;;;18.95;;
9559;SDS011;4818;50.860;4.648;2023-03-01T07:24:57;19.83;;;12.68;;
9559;SDS011;4818;50.860;4.648;2023-03-01T07:27:23;13.63;;;7.13;;
9559;SDS011;4818;50.860;4.648;2023-03-01T07:29:49;19.70;;;12.02;;
9559;SDS011;4818;50.860;4.648;2023-03-01T07:32:16;9.88;;;5.82;;
9559;SDS011;4818;50.860;4.648;2023-03-01T07:34:42;9.23;;;6.10;;
9559;SDS011;4818;50.860;4.648;2023-03-01T07:37:08;15.20;;;7.80;;
9559;SDS011;4818;50.860;4.648;2023-03-01T07:39:34;12.65;;;6.85;;
9559;SDS011;4818;50.860;4.648;2023-03-01T07:42:00;13.02;;;8.43;;
9559;SDS011;4818;50.860;4.648;2023-03-01T07:44:27;7.75;;;5.82;;
9559;SDS011;4818;50.860;4.648;2023-03-01T07:46:54;12.63;;;7.65;;
9559;SDS011;4818;50.860;4.648;2023-03-01T07:49:21;8.88;;;5.63;;
9559;SDS011;4818;50.860;4.648;2023-03-01T07:51:48;9.45;;;5.30;;
9559;SDS011;4818;50.860;4.648;2023-03-01T07:54:14;10.32;;;5.78;;
9559;SDS011;4818;50.860;4.648;2023-03-01T07:56:40;8.15;;;5.78;;
9559;SDS011;4818;50.860;4.648;2023-03-01T07:59:09;8.10;;;4.82;;
9559;SDS011;4818;50.860;4.648;2023-03-01T08:01:35;9.10;;;5.53;;
9559;SDS011;4818;50.860;4.648;2023-03-01T08:04:01;7.60;;;5.43;;
9559;SDS011;4818;50.860;4.648;2023-03-01T08:06:29;10.25;;;5.25;;
9559;SDS011;4818;50.860;4.648;2023-03-01T08:08:56;7.50;;;4.97;;
9559;SDS011;4818;50.860;4.648;2023-03-01T08:11:23;7.25;;;5.18;;
9559;SDS011;4818;50.860;4.648;2023-03-01T08:13:49;8.73;;;6.15;;
9559;SDS011;4818;50.860;4.648;2023-03-01T08:16:15;6.80;;;5.68;;
9559;SDS011;4818;50.860;4.648;2023-03-01T08:18:42;11.90;;;6.00;;
9559;SDS011;4818;50.860;4.648;2023-03-01T08:21:10;7.88;;;5.35;;
9559;SDS011;4818;50.860;4.648;2023-03-01T08:23:36;10.70;;;5.68;;
9559;SDS011;4818;50.860;4.648;2023-03-01T08:26:07;9.05;;;5.78;;
9559;SDS011;4818;50.860;4.648;2023-03-01T08:28:34;9.95;;;6.40;;
9559;SDS011;4818;50.860;4.648;2023-03-01T08:31:01;10.13;;;6.63;;
9559;SDS011;4818;50.860;4.648;2023-03-01T08:33:27;10.20;;;5.65;;
9559;SDS011;4818;50.860;4.648;2023-03-01T08:36:01;8.05;;;5.25;;
9559;SDS011;4818;50.860;4.648;2023-03-01T08:38:27;10.20;;;5.65;;
9559;SDS011;4818;50.860;4.648;2023-03-01T08:40:54;10.93;;;6.05;;
9559;SDS011;4818;50.860;4.648;2023-03-01T08:43:20;14.60;;;5.82;;
9559;SDS011;4818;50.860;4.648;2023-03-01T08:45:49;8.38;;;6.40;;
9559;SDS011;4818;50.860;4.648;2023-03-01T08:48:16;11.20;;;6.35;;
9559;SDS011;4818;50.860;4.648;2023-03-01T08:50:42;8.02;;;5.75;;
9559;SDS011;4818;50.860;4.648;2023-03-01T08:53:08;7.00;;;5.28;;
9559;SDS011;4818;50.860;4.648;2023-03-01T08:55:35;8.02;;;5.65;;
9559;SDS011;4818;50.860;4.648;2023-03-01T08:58:01;10.50;;;6.68;;
9559;SDS011;4818;50.860;4.648;2023-03-01T09:00:27;9.93;;;5.95;;
9559;SDS011;4818;50.860;4.648;2023-03-01T09:02:53;9.50;;;5.55;;
9559;SDS011;4818;50.860;4.648;2023-03-01T09:05:20;8.68;;;6.38;;
9559;SDS011;4818;50.860;4.648;2023-03-01T09:07:49;11.18;;;6.60;;
9559;SDS011;4818;50.860;4.648;2023-03-01T09:10:18;9.77;;;6.13;;
9559;SDS011;4818;50.860;4.648;2023-03-01T09:12:47;12.43;;;5.93;;
9559;SDS011;4818;50.860;4.648;2023-03-01T09:15:13;8.60;;;6.68;;
9559;SDS011;4818;50.860;4.648;2023-03-01T09:17:41;10.20;;;6.53;;
9559;SDS011;4818;50.860;4.648;2023-03-01T09:20:09;8.80;;;6.18;;
9559;SDS011;4818;50.860;4.648;2023-03-01T09:22:35;8.75;;;6.47;;
9559;SDS011;4818;50.860;4.648;2023-03-01T09:25:01;8.50;;;5.65;;
9559;SDS011;4818;50.860;4.648;2023-03-01T09:27:28;7.55;;;5.80;;
9559;SDS011;4818;50.860;4.648;2023-03-01T09:29:54;7.65;;;5.68;;
9559;SDS011;4818;50.860;4.648;2023-03-01T09:32:22;9.45;;;6.72;;
9559;SDS011;4818;50.860;4.648;2023-03-01T09:34:49;10.48;;;6.40;;
9559;SDS011;4818;50.860;4.648;2023-03-01T09:37:31;14.60;;;6.70;;
9559;SDS011;4818;50.860;4.648;2023-03-01T09:39:57;9.93;;;6.68;;
9559;SDS011;4818;50.860;4.648;2023-03-01T09:42:24;7.15;;;6.38;;
9559;SDS011;4818;50.860;4.648;2023-03-01T09:44:54;9.07;;;6.13;;
9559;SDS011;4818;50.860;4.648;2023-03-01T09:47:29;9.20;;;6.32;;
9559;SDS011;4818;50.860;4.648;2023-03-01T09:52:42;8.00;;;6.55;;
9559;SDS011;4818;50.860;4.648;2023-03-01T09:55:11;8.82;;;5.78;;
9559;SDS011;4818;50.860;4.648;2023-03-01T10:03:12;10.60;;;7.60;;
9559;SDS011;4818;50.860;4.648;2023-03-01T10:05:50;9.60;;;7.18;;
9559;SDS011;4818;50.860;4.648;2023-03-01T10:11:05;11.02;;;6.63;;
9559;SDS011;4818;50.860;4.648;2023-03-01T10:13:54;13.18;;;7.07;;
9559;SDS011;4818;50.860;4.648;2023-03-01T10:16:23;12.23;;;6.93;;
9559;SDS011;4818;50.860;4.648;2023-03-01T10:18:54;10.05;;;7.32;;
9559;SDS011;4818;50.860;4.648;2023-03-01T10:21:21;9.95;;;7.07;;
9559;SDS011;4818;50.860;4.648;2023-03-01T10:23:51;10.82;;;6.72;;
9559;SDS011;4818;50.860;4.648;2023-03-01T10:29:04;12.27;;;8.13;;
9559;SDS011;4818;50.860;4.648;2023-03-01T10:34:07;11.52;;;7.22;;
9559;SDS011;4818;50.860;4.648;2023-03-01T10:36:34;12.05;;;7.25;;
9559;SDS011;4818;50.860;4.648;2023-03-01T10:39:00;12.43;;;7.20;;
9559;SDS011;4818;50.860;4.648;2023-03-01T10:41:34;11.95;;;7.68;;
9559;SDS011;4818;50.860;4.648;2023-03-01T10:44:08;9.75;;;7.55;;
9559;SDS011;4818;50.860;4.648;2023-03-01T10:46:37;10.15;;;6.43;;
9559;SDS011;4818;50.860;4.648;2023-03-01T10:49:20;7.78;;;6.72;;
9559;SDS011;4818;50.860;4.648;2023-03-01T10:51:47;9.43;;;6.82;;
9559;SDS011;4818;50.860;4.648;2023-03-01T10:56:45;10.13;;;6.68;;
9559;SDS011;4818;50.860;4.648;2023-03-01T10:59:24;10.52;;;7.45;;
9559;SDS011;4818;50.860;4.648;2023-03-01T11:07:23;12.45;;;6.78;;
9559;SDS011;4818;50.860;4.648;2023-03-01T11:09:49;12.95;;;7.40;;
9559;SDS011;4818;50.860;4.648;2023-03-01T11:12:16;12.73;;;7.07;;
9559;SDS011;4818;50.860;4.648;2023-03-01T11:14:47;12.68;;;8.68;;
9559;SDS011;4818;50.860;4.648;2023-03-01T11:17:19;14.38;;;6.70;;
9559;SDS011;4818;50.860;4.648;2023-03-01T11:20:03;12.45;;;6.97;;
9559;SDS011;4818;50.860;4.648;2023-03-01T11:22:31;10.05;;;6.78;;
9559;SDS011;4818;50.860;4.648;2023-03-01T11:24:59;15.50;;;7.38;;
9559;SDS011;4818;50.860;4.648;2023-03-01T11:27:31;11.52;;;7.53;;
9559;SDS011;4818;50.860;4.648;2023-03-01T11:32:45;12.57;;;7.03;;
9559;SDS011;4818;50.860;4.648;2023-03-01T11:35:15;12.68;;;6.40;;
9559;SDS011;4818;50.860;4.648;2023-03-01T11:40:26;15.65;;;7.05;;
9559;SDS011;4818;50.860;4.648;2023-03-01T11:45:19;13.02;;;7.90;;
9559;SDS011;4818;50.860;4.648;2023-03-01T12:06:33;11.35;;;7.18;;
9559;SDS011;4818;50.860;4.648;2023-03-01T12:09:06;11.98;;;6.82;;
9559;SDS011;4818;50.860;4.648;2023-03-01T12:14:28;12.85;;;6.95;;
9559;SDS011;4818;50.860;4.648;2023-03-01T12:17:06;12.73;;;6.93;;
9559;SDS011;4818;50.860;4.648;2023-03-01T12:19:37;12.57;;;6.18;;
9559;SDS011;4818;50.860;4.648;2023-03-01T12:35:19;8.90;;;5.95;;
9559;SDS011;4818;50.860;4.648;2023-03-01T12:40:44;12.27;;;7.20;;
9559;SDS011;4818;50.860;4.648;2023-03-01T12:46:15;10.75;;;6.20;;
9559;SDS011;4818;50.860;4.648;2023-03-01T12:51:21;14.27;;;6.60;;
9559;SDS011;4818;50.860;4.648;2023-03-01T12:53:50;10.13;;;5.90;;
9559;SDS011;4818;50.860;4.648;2023-03-01T12:56:18;11.55;;;5.78;;
9559;SDS011;4818;50.860;4.648;2023-03-01T12:58:51;16.70;;;5.95;;
9559;SDS011;4818;50.860;4.648;2023-03-01T13:01:35;14.93;;;7.45;;
9559;SDS011;4818;50.860;4.648;2023-03-01T13:04:14;11.07;;;6.47;;
9559;SDS011;4818;50.860;4.648;2023-03-01T13:11:41;9.93;;;6.43;;
9559;SDS011;4818;50.860;4.648;2023-03-01T13:14:50;9.82;;;6.00;;
9559;SDS011;4818;50.860;4.648;2023-03-01T13:16:57;11.15;;;5.93;;
9559;SDS011;4818;50.860;4.648;2023-03-01T13:19:25;10.55;;;6.30;;
9559;SDS011;4818;50.860;4.648;2023-03-01T13:21:52;9.32;;;6.22;;
9559;SDS011;4818;50.860;4.648;2023-03-01T13:34:55;14.02;;;6.07;;
9559;SDS011;4818;50.860;4.648;2023-03-01T13:37:25;10.63;;;6.13;;
9559;SDS011;4818;50.860;4.648;2023-03-01T13:39:54;9.65;;;5.90;;
9559;SDS011;4818;50.860;4.648;2023-03-01T13:42:39;10.27;;;5.85;;
9559;SDS011;4818;50.860;4.648;2023-03-01T13:45:14;10.02;;;5.45;;
9559;SDS011;4818;50.860;4.648;2023-03-01T13:47:41;11.07;;;5.90;;
9559;SDS011;4818;50.860;4.648;2023-03-01T13:50:15;11.10;;;6.10;;
9559;SDS011;4818;50.860;4.648;2023-03-01T13:52:59;9.80;;;5.78;;
9559;SDS011;4818;50.860;4.648;2023-03-01T13:55:32;10.13;;;5.95;;
9559;SDS011;4818;50.860;4.648;2023-03-01T13:58:01;14.52;;;6.47;;
9559;SDS011;4818;50.860;4.648;2023-03-01T14:00:36;12.00;;;6.45;;
9559;SDS011;4818;50.860;4.648;2023-03-01T14:03:10;13.75;;;7.18;;
9559;SDS011;4818;50.860;4.648;2023-03-01T14:05:36;11.20;;;5.97;;
9559;SDS011;4818;50.860;4.648;2023-03-01T14:08:03;13.77;;;6.75;;
9559;SDS011;4818;50.860;4.648;2023-03-01T14:10:35;11.55;;;6.13;;
9559;SDS011;4818;50.860;4.648;2023-03-01T14:15:40;9.57;;;5.40;;
9559;SDS011;4818;50.860;4.648;2023-03-01T14:18:18;12.27;;;6.20;;
9559;SDS011;4818;50.860;4.648;2023-03-01T14:20:47;10.25;;;6.07;;
9559;SDS011;4818;50.860;4.648;2023-03-01T14:23:20;11.63;;;6.55;;
9559;SDS011;4818;50.860;4.648;2023-03-01T14:25:57;11.38;;;5.53;;
9559;SDS011;4818;50.860;4.648;2023-03-01T14:28:27;11.93;;;6.28;;
9559;SDS011;4818;50.860;4.648;2023-03-01T14:30:54;10.60;;;6.10;;
9559;SDS011;4818;50.860;4.648;2023-03-01T14:33:28;14.82;;;6.80;;
9559;SDS011;4818;50.860;4.648;2023-03-01T14:36:03;8.60;;;5.93;;
9559;SDS011;4818;50.860;4.648;2023-03-01T14:38:37;10.90;;;6.22;;
9559;SDS011;4818;50.860;4.648;2023-03-01T14:41:05;10.43;;;5.57;;
9559;SDS011;4818;50.860;4.648;2023-03-01T14:43:32;10.80;;;6.05;;
9559;SDS011;4818;50.860;4.648;2023-03-01T14:45:58;15.60;;;6.25;;
9559;SDS011;4818;50.860;4.648;2023-03-01T14:48:25;8.52;;;5.32;;
9559;SDS011;4818;50.860;4.648;2023-03-01T14:50:53;15.65;;;5.45;;
9559;SDS011;4818;50.860;4.648;2023-03-01T14:53:20;9.15;;;5.50;;
9559;SDS011;4818;50.860;4.648;2023-03-01T14:55:51;11.93;;;5.88;;
9559;SDS011;4818;50.860;4.648;2023-03-01T14:58:19;10.68;;;5.45;;
9559;SDS011;4818;50.860;4.648;2023-03-01T15:00:53;9.45;;;5.50;;
9559;SDS011;4818;50.860;4.648;2023-03-01T15:03:40;8.63;;;5.50;;
9559;SDS011;4818;50.860;4.648;2023-03-01T15:06:10;8.52;;;5.00;;
9559;SDS011;4818;50.860;4.648;2023-03-01T15:08:37;10.55;;;5.30;;
9559;SDS011;4818;50.860;4.648;2023-03-01T15:13:39;9.35;;;5.05;;
9559;SDS011;4818;50.860;4.648;2023-03-01T15:18:32;12.10;;;5.25;;
9559;SDS011;4818;50.860;4.648;2023-03-01T15:21:06;8.63;;;4.30;;
9559;SDS011;4818;50.860;4.648;2023-03-01T15:23:33;10.50;;;5.00;;
9559;SDS011;4818;50.860;4.648;2023-03-01T15:26:00;10.13;;;5.03;;
9559;SDS011;4818;50.860;4.648;2023-03-01T15:28:30;9.85;;;4.63;;
9559;SDS011;4818;50.860;4.648;2023-03-01T15:31:02;9.25;;;5.22;;
9559;SDS011;4818;50.860;4.648;2023-03-01T15:33:30;9.95;;;4.90;;
9559;SDS011;4818;50.860;4.648;2023-03-01T15:36:03;8.32;;;4.07;;
9559;SDS011;4818;50.860;4.648;2023-03-01T15:40:57;11.10;;;5.38;;
9559;SDS011;4818;50.860;4.648;2023-03-01T15:43:37;12.77;;;4.90;;
9559;SDS011;4818;50.860;4.648;2023-03-01T15:46:03;9.38;;;4.88;;
9559;SDS011;4818;50.860;4.648;2023-03-01T15:48:30;8.48;;;5.45;;
9559;SDS011;4818;50.860;4.648;2023-03-01T15:50:57;10.93;;;4.97;;
9559;SDS011;4818;50.860;4.648;2023-03-01T15:53:24;10.45;;;5.00;;
9559;SDS011;4818;50.860;4.648;2023-03-01T15:55:52;8.80;;;4.45;;
9559;SDS011;4818;50.860;4.648;2023-03-01T15:58:24;9.25;;;5.03;;
9559;SDS011;4818;50.860;4.648;2023-03-01T16:00:50;7.93;;;4.63;;
9559;SDS011;4818;50.860;4.648;2023-03-01T16:03:21;11.05;;;4.30;;
9559;SDS011;4818;50.860;4.648;2023-03-01T16:05:48;9.10;;;4.93;;
9559;SDS011;4818;50.860;4.648;2023-03-01T16:08:15;10.63;;;6.32;;
9559;SDS011;4818;50.860;4.648;2023-03-01T16:10:41;7.88;;;4.38;;
9559;SDS011;4818;50.860;4.648;2023-03-01T16:13:11;7.13;;;3.95;;
9559;SDS011;4818;50.860;4.648;2023-03-01T16:15:38;7.78;;;3.67;;
9559;SDS011;4818;50.860;4.648;2023-03-01T16:18:07;9.52;;;4.43;;
9559;SDS011;4818;50.860;4.648;2023-03-01T16:20:35;11.00;;;4.82;;
9559;SDS011;4818;50.860;4.648;2023-03-01T16:23:02;7.47;;;4.28;;
9559;SDS011;4818;50.860;4.648;2023-03-01T16:25:29;7.55;;;3.83;;
9559;SDS011;4818;50.860;4.648;2023-03-01T16:27:55;8.63;;;4.47;;
9559;SDS011;4818;50.860;4.648;2023-03-01T16:30:23;8.20;;;4.82;;
9559;SDS011;4818;50.860;4.648;2023-03-01T16:32:49;9.15;;;4.65;;
9559;SDS011;4818;50.860;4.648;2023-03-01T16:35:17;11.82;;;4.63;;
9559;SDS011;4818;50.860;4.648;2023-03-01T16:37:44;8.77;;;4.95;;
9559;SDS011;4818;50.860;4.648;2023-03-01T16:40:21;7.93;;;5.15;;
9559;SDS011;4818;50.860;4.648;2023-03-01T16:42:48;8.90;;;4.00;;
9559;SDS011;4818;50.860;4.648;2023-03-01T16:45:15;7.20;;;4.07;;
9559;SDS011;4818;50.860;4.648;2023-03-01T16:47:41;9.20;;;4.55;;
9559;SDS011;4818;50.860;4.648;2023-03-01T16:50:07;9.10;;;4.40;;
9559;SDS011;4818;50.860;4.648;2023-03-01T16:52:34;9.90;;;4.82;;
9559;SDS011;4818;50.860;4.648;2023-03-01T16:55:01;8.77;;;4.45;;
9559;SDS011;4818;50.860;4.648;2023-03-01T16:57:28;8.52;;;4.90;;
9559;SDS011;4818;50.860;4.648;2023-03-01T16:59:55;8.93;;;4.25;;
9559;SDS011;4818;50.860;4.648;2023-03-01T17:02:22;10.00;;;5.00;;
9559;SDS011;4818;50.860;4.648;2023-03-01T17:04:52;11.32;;;5.25;;
9559;SDS011;4818;50.860;4.648;2023-03-01T17:07:18;7.00;;;4.50;;
9559;SDS011;4818;50.860;4.648;2023-03-01T17:09:44;8.88;;;4.72;;
9559;SDS011;4818;50.860;4.648;2023-03-01T17:12:14;10.00;;;5.20;;
9559;SDS011;4818;50.860;4.648;2023-03-01T17:17:07;10.15;;;5.03;;
9559;SDS011;4818;50.860;4.648;2023-03-01T17:19:33;11.60;;;5.30;;
9559;SDS011;4818;50.860;4.648;2023-03-01T17:22:01;7.90;;;4.32;;
9559;SDS011;4818;50.860;4.648;2023-03-01T17:24:31;8.52;;;4.18;;
9559;SDS011;4818;50.860;4.648;2023-03-01T17:26:57;14.35;;;4.50;;
9559;SDS011;4818;50.860;4.648;2023-03-01T17:29:24;8.70;;;4.43;;
9559;SDS011;4818;50.860;4.648;2023-03-01T17:31:50;9.40;;;4.13;;
9559;SDS011;4818;50.860;4.648;2023-03-01T17:34:18;7.88;;;5.10;;
9559;SDS011;4818;50.860;4.648;2023-03-01T17:36:45;10.73;;;4.40;;
9559;SDS011;4818;50.860;4.648;2023-03-01T17:39:11;8.88;;;4.50;;
9559;SDS011;4818;50.860;4.648;2023-03-01T17:41:38;7.13;;;3.97;;
9559;SDS011;4818;50.860;4.648;2023-03-01T17:44:04;8.30;;;4.32;;
9559;SDS011;4818;50.860;4.648;2023-03-01T17:46:30;9.20;;;5.13;;
9559;SDS011;4818;50.860;4.648;2023-03-01T17:48:56;9.50;;;4.65;;
9559;SDS011;4818;50.860;4.648;2023-03-01T17:51:23;9.43;;;4.57;;
9559;SDS011;4818;50.860;4.648;2023-03-01T17:53:49;12.18;;;4.80;;
9559;SDS011;4818;50.860;4.648;2023-03-01T17:56:15;10.05;;;4.82;;
9559;SDS011;4818;50.860;4.648;2023-03-01T17:58:42;9.48;;;4.82;;
9559;SDS011;4818;50.860;4.648;2023-03-01T18:01:09;9.98;;;4.55;;
9559;SDS011;4818;50.860;4.648;2023-03-01T18:03:36;8.13;;;4.93;;
9559;SDS011;4818;50.860;4.648;2023-03-01T18:06:08;8.88;;;4.65;;
9559;SDS011;4818;50.860;4.648;2023-03-01T18:08:35;10.32;;;5.13;;
9559;SDS011;4818;50.860;4.648;2023-03-01T18:11:01;14.10;;;5.65;;
9559;SDS011;4818;50.860;4.648;2023-03-01T18:13:27;8.23;;;4.35;;
9559;SDS011;4818;50.860;4.648;2023-03-01T18:15:54;9.68;;;5.18;;
9559;SDS011;4818;50.860;4.648;2023-03-01T18:18:25;11.55;;;5.60;;
9559;SDS011;4818;50.860;4.648;2023-03-01T18:20:58;6.97;;;4.80;;
9559;SDS011;4818;50.860;4.648;2023-03-01T18:23:25;7.72;;;4.82;;
9559;SDS011;4818;50.860;4.648;2023-03-01T18:25:51;8.30;;;5.00;;
9559;SDS011;4818;50.860;4.648;2023-03-01T18:28:20;11.57;;;5.40;;
9559;SDS011;4818;50.860;4.648;2023-03-01T18:30:46;10.32;;;5.55;;
9559;SDS011;4818;50.860;4.648;2023-03-01T18:33:12;9.75;;;5.35;;
9559;SDS011;4818;50.860;4.648;2023-03-01T18:35:38;10.93;;;5.82;;